createdAt,value
2023-05-14T00:04:41.396Z,101433.22
2023-05-14T00:09:44.226Z,101426.19
2023-05-14T00:14:46.896Z,101424.22
2023-05-14T00:19:49.604Z,101424.56
2023-05-14T00:24:52.525Z,101424.94
2023-05-14T00:29:55.238Z,101431.50
2023-05-14T00:34:58.745Z,101449.09
2023-05-14T00:40:07.027Z,101449.97
2023-05-14T00:45:10.320Z,101438.09
2023-05-14T00:50:16.557Z,101436.94
2023-05-14T00:55:19.760Z,101441.28
2023-05-14T01:00:23.026Z,101424.19
2023-05-14T01:05:30.325Z,101427.69
2023-05-14T01:10:42.419Z,101428.69
2023-05-14T01:15:47.866Z,101425.16
2023-05-14T01:20:53.865Z,101427.47
2023-05-14T01:25:56.587Z,101432.69
2023-05-14T01:31:10.767Z,101430.16
2023-05-14T01:36:13.793Z,101423.81
2023-05-14T01:41:18.531Z,101428.00
2023-05-14T01:46:22.002Z,101428.31
2023-05-14T01:51:24.809Z,101431.31
2023-05-14T01:56:27.845Z,101434.34
2023-05-14T02:01:30.791Z,101435.31
2023-05-14T02:06:33.781Z,101439.91
2023-05-14T02:11:36.686Z,101436.13
2023-05-14T02:16:39.457Z,101443.91
2023-05-14T02:21:42.249Z,101432.84
2023-05-14T02:26:44.945Z,101440.50
2023-05-14T02:31:47.638Z,101432.97
2023-05-14T02:36:51.267Z,101435.91
2023-05-14T02:41:53.982Z,101437.81
2023-05-14T02:46:56.841Z,101437.53
2023-05-14T02:52:01.196Z,101440.47
2023-05-14T02:57:03.912Z,101440.69
2023-05-14T03:02:06.803Z,101441.53
2023-05-14T03:07:09.966Z,101452.84
2023-05-14T03:12:13.157Z,101456.63
2023-05-14T03:17:15.868Z,101449.25
2023-05-14T03:22:18.720Z,101454.94
2023-05-14T03:27:23.822Z,101455.41
2023-05-14T03:32:26.681Z,101461.59
2023-05-14T03:37:29.535Z,101455.31
2023-05-14T03:42:32.353Z,101449.47
2023-05-14T03:47:34.963Z,101460.63
2023-05-14T03:52:37.577Z,101447.69
2023-05-14T03:57:40.886Z,101448.81
2023-05-14T04:02:43.811Z,101451.09
2023-05-14T04:07:47.116Z,101451.41
2023-05-14T04:12:49.825Z,101459.22
2023-05-14T04:17:52.656Z,101472.16
2023-05-14T04:22:55.555Z,101462.97
2023-05-14T04:27:59.008Z,101461.47
2023-05-14T04:33:01.993Z,101451.03
2023-05-14T04:38:04.589Z,101461.94
2023-05-14T04:43:08.316Z,101458.66
2023-05-14T04:48:10.925Z,101453.50
2023-05-14T04:53:13.666Z,101455.03
2023-05-14T04:58:16.354Z,101458.66
2023-05-14T05:03:19.240Z,101459.13
2023-05-14T05:08:21.761Z,101467.25
2023-05-14T05:13:24.122Z,101456.66
2023-05-14T05:18:26.867Z,101459.66
2023-05-14T05:23:29.583Z,101458.81
2023-05-14T05:28:32.707Z,101453.59
2023-05-14T05:33:36.088Z,101455.78
2023-05-14T05:38:38.634Z,101455.50
2023-05-14T05:43:41.541Z,101454.41
2023-05-14T05:48:44.332Z,101456.34
2023-05-14T05:53:47.183Z,101445.16
2023-05-14T05:58:49.981Z,101453.00
2023-05-14T06:03:53.389Z,101448.44
2023-05-14T06:08:56.159Z,101443.28
2023-05-14T06:13:58.932Z,101435.59
2023-05-14T06:19:02.394Z,101436.38
2023-05-14T06:24:06.484Z,101430.25
2023-05-14T06:29:09.049Z,101438.91
2023-05-14T06:34:11.838Z,101430.56
2023-05-14T06:39:14.486Z,101433.38
2023-05-14T06:44:19.392Z,101428.75
2023-05-14T06:49:21.985Z,101430.19
2023-05-14T06:54:26.034Z,101421.75
2023-05-14T06:59:28.822Z,101427.50
2023-05-14T07:04:31.803Z,101423.50
2023-05-14T07:09:34.492Z,101420.53
2023-05-14T07:14:37.286Z,101423.50
2023-05-14T07:19:40.254Z,101426.59
2023-05-14T07:24:43.094Z,101420.50
2023-05-14T07:29:45.776Z,101423.03
2023-05-14T07:34:49.152Z,101420.22
2023-05-14T07:39:53.107Z,101415.03
2023-05-14T07:44:59.116Z,101413.78
2023-05-14T07:50:02.744Z,101401.97
2023-05-14T07:55:09.533Z,101412.34
2023-05-14T08:00:13.136Z,101409.03
2023-05-14T08:05:17.060Z,101404.91
2023-05-14T08:10:20.773Z,101389.31
2023-05-14T08:15:27.882Z,101389.88
2023-05-14T08:20:34.798Z,101379.34
2023-05-14T08:25:38.291Z,101379.22
2023-05-14T08:30:41.160Z,101366.19
2023-05-14T08:35:44.002Z,101374.09
2023-05-14T08:40:58.153Z,101380.88
2023-05-14T08:46:04.801Z,101379.94
2023-05-14T08:51:09.227Z,101375.72
2023-05-14T08:56:13.097Z,101363.94
2023-05-14T09:01:16.049Z,101351.44
2023-05-14T09:06:19.504Z,101341.84
2023-05-14T09:11:22.170Z,101337.50
2023-05-14T09:16:26.549Z,101328.84
2023-05-14T09:21:31.584Z,101335.84
2023-05-14T09:26:36.358Z,101326.56
2023-05-14T09:32:00.586Z,101324.19
2023-05-14T09:37:05.855Z,101315.47
2023-05-14T09:42:45.862Z,101308.03
2023-05-14T09:47:49.104Z,101309.22
2023-05-14T09:52:51.940Z,101307.31
2023-05-14T09:57:54.650Z,101297.25
2023-05-14T10:02:59.008Z,101293.72
2023-05-14T10:08:06.416Z,101298.38
2023-05-14T10:13:17.858Z,101284.03
2023-05-14T10:18:24.499Z,101275.63
2023-05-14T10:23:27.584Z,101274.78
2023-05-14T10:28:31.292Z,101261.53
2023-05-14T10:33:47.371Z,101258.38
2023-05-14T10:38:56.836Z,101256.06
2023-05-14T10:43:59.833Z,101251.56
2023-05-14T10:49:02.593Z,101251.00
2023-05-14T10:54:08.662Z,101249.59
2023-05-14T10:59:11.842Z,101239.66
2023-05-14T11:04:24.344Z,101247.66
2023-05-14T11:09:27.378Z,101234.59
2023-05-14T11:14:30.062Z,101242.00
2023-05-14T11:19:32.494Z,101230.38
2023-05-14T11:24:35.163Z,101233.59
2023-05-14T11:29:38.491Z,101215.16
2023-05-14T11:34:42.594Z,101227.88
2023-05-14T11:39:54.181Z,101217.97
2023-05-14T11:44:56.996Z,101218.72
2023-05-14T11:50:01.222Z,101216.66
2023-05-14T11:55:05.351Z,101219.56
2023-05-14T12:00:21.806Z,101210.50
2023-05-14T12:05:25.746Z,101203.44
2023-05-14T12:10:28.355Z,101195.78
2023-05-14T12:15:31.775Z,101188.19
2023-05-14T12:20:35.972Z,101191.03
2023-05-14T12:25:39.201Z,101190.00
2023-05-14T12:30:42.075Z,101174.19
2023-05-14T12:35:45.297Z,101177.28
2023-05-14T12:40:48.109Z,101187.38
2023-05-14T12:45:50.914Z,101179.94
2023-05-14T12:50:53.531Z,101178.59
2023-05-14T12:55:56.247Z,101187.94
2023-05-14T13:00:59.153Z,101186.78
2023-05-14T13:06:02.005Z,101187.78
2023-05-14T13:11:06.216Z,101186.44
2023-05-14T13:16:09.119Z,101180.16
2023-05-14T13:21:12.888Z,101183.50
2023-05-14T13:26:16.286Z,101186.78
2023-05-14T13:31:19.164Z,101192.56
2023-05-14T13:36:21.932Z,101190.91
2023-05-14T13:41:26.631Z,101193.88
2023-05-14T13:46:29.612Z,101195.72
2023-05-14T13:51:32.164Z,101194.59
2023-05-14T13:56:36.143Z,101196.19
2023-05-14T14:01:38.857Z,101201.06
2023-05-14T14:06:41.821Z,101208.97
2023-05-14T14:11:45.746Z,101201.31
2023-05-14T14:16:48.592Z,101206.78
2023-05-14T14:26:58.661Z,101218.56
2023-05-14T14:32:01.730Z,101206.19
2023-05-14T14:37:04.811Z,101207.41
2023-05-14T14:42:07.745Z,101213.09
2023-05-14T14:47:10.581Z,101212.38
2023-05-14T14:52:13.255Z,101212.66
2023-05-14T14:57:16.012Z,101210.91
2023-05-14T15:02:18.902Z,101191.38
2023-05-14T15:07:22.932Z,101205.31
2023-05-14T15:12:25.743Z,101203.34
2023-05-14T15:17:28.336Z,101210.63
2023-05-14T15:22:31.127Z,101206.75
2023-05-14T15:27:33.670Z,101192.97
2023-05-14T15:32:36.855Z,101193.94
2023-05-14T15:37:41.622Z,101184.97
2023-05-14T15:42:44.708Z,101206.44
2023-05-14T15:47:47.311Z,101201.53
2023-05-14T15:52:50.250Z,101188.72
2023-05-14T15:57:53.691Z,101195.16
2023-05-14T16:02:56.618Z,101201.72
2023-05-14T16:07:59.841Z,101205.16
2023-05-14T16:13:02.832Z,101203.66
2023-05-14T16:18:05.683Z,101203.63
2023-05-14T16:23:08.583Z,101202.56
2023-05-14T16:28:11.362Z,101196.16
2023-05-14T16:33:14.103Z,101196.84
2023-05-14T16:38:17.120Z,101202.28
2023-05-14T16:43:20.067Z,101212.56
2023-05-14T16:48:24.152Z,101212.00
2023-05-14T16:53:26.877Z,101212.66
2023-05-14T16:58:29.711Z,101227.44
2023-05-14T17:03:32.532Z,101234.31
2023-05-14T17:08:36.052Z,101237.44
2023-05-14T17:13:38.902Z,101243.09
2023-05-14T17:18:41.631Z,101242.63
2023-05-14T17:23:45.873Z,101250.53
2023-05-14T17:28:48.745Z,101250.03
2023-05-14T17:33:51.433Z,101264.94
2023-05-14T17:38:54.465Z,101266.94
2023-05-14T17:43:57.394Z,101270.97
2023-05-14T17:49:00.909Z,101259.81
2023-05-14T17:54:04.251Z,101265.28
2023-05-14T17:59:07.302Z,101270.09
2023-05-14T18:04:10.869Z,101261.97
2023-05-14T18:09:13.944Z,101257.41
2023-05-14T18:14:18.867Z,101267.88
2023-05-14T18:19:21.405Z,101270.41
2023-05-14T18:24:24.186Z,101274.22
2023-05-14T18:29:27.199Z,101269.69
2023-05-14T18:34:29.976Z,101266.22
2023-05-14T18:39:32.568Z,101262.66
2023-05-14T18:44:35.349Z,101269.56
2023-05-14T18:49:40.422Z,101260.03
2023-05-14T18:54:42.955Z,101261.13
2023-05-14T18:59:45.582Z,101276.19
2023-05-14T19:04:52.714Z,101274.72
2023-05-14T19:09:56.206Z,101269.56
2023-05-14T19:14:59.126Z,101279.13
2023-05-14T19:20:01.815Z,101270.38
2023-05-14T19:25:08.367Z,101261.88
2023-05-14T19:30:12.202Z,101260.25
2023-05-14T19:35:15.052Z,101252.13
2023-05-14T19:40:17.973Z,101254.84
2023-05-14T19:45:22.474Z,101254.66
2023-05-14T19:50:25.310Z,101263.81
2023-05-14T19:55:27.910Z,101258.81
2023-05-14T20:00:31.102Z,101256.75
2023-05-14T20:05:39.550Z,101256.75
2023-05-14T20:10:42.801Z,101263.59
2023-05-14T20:15:45.786Z,101263.81
2023-05-14T20:20:49.304Z,101247.81
2023-05-14T20:25:52.111Z,101244.88
2023-05-14T20:30:55.492Z,101243.00
2023-05-14T20:35:58.597Z,101242.59
2023-05-14T20:41:01.288Z,101234.72
2023-05-14T20:46:06.011Z,101233.66
2023-05-14T20:51:08.818Z,101248.00
2023-05-14T20:56:11.761Z,101252.59
2023-05-14T21:01:14.634Z,101265.47
2023-05-14T21:06:18.803Z,101263.81
2023-05-14T21:11:23.178Z,101247.59
2023-05-14T21:16:26.039Z,101238.66
2023-05-14T21:21:28.686Z,101252.78
2023-05-14T21:26:37.113Z,101248.38
2023-05-14T21:31:39.764Z,101248.38
2023-05-14T21:36:42.749Z,101252.13
2023-05-14T21:41:45.406Z,101251.91
2023-05-14T21:46:48.443Z,101244.22
2023-05-14T21:51:53.307Z,101241.13
2023-05-14T21:56:56.224Z,101242.59
2023-05-14T22:07:05.160Z,101249.66
2023-05-14T22:12:08.162Z,101245.72
2023-05-14T22:17:13.016Z,101242.94
2023-05-14T22:22:15.684Z,101248.75
2023-05-14T22:27:18.728Z,101240.44
2023-05-14T22:32:21.908Z,101246.06
2023-05-14T22:37:24.845Z,101234.81
2023-05-14T22:42:28.713Z,101232.13
2023-05-14T22:47:31.826Z,101224.66
2023-05-14T22:52:34.613Z,101230.50
2023-05-14T22:57:37.573Z,101218.84
2023-05-14T23:02:40.625Z,101225.50
2023-05-14T23:07:43.919Z,101226.13
2023-05-14T23:12:46.751Z,101233.66
2023-05-14T23:17:49.702Z,101227.03
2023-05-14T23:22:52.690Z,101229.28
2023-05-14T23:27:55.672Z,101217.81
2023-05-14T23:32:58.377Z,101233.19
2023-05-14T23:38:01.395Z,101231.03
2023-05-14T23:43:04.202Z,101240.13
2023-05-14T23:48:07.142Z,101235.47
2023-05-14T23:53:10.084Z,101218.16
2023-05-14T23:58:12.886Z,101215.81
